createdAt,value
2023-01-19T00:00:48.539Z,-0.70
2023-01-19T00:03:18.065Z,-0.70
2023-01-19T00:05:46.395Z,-0.70
2023-01-19T00:08:17.880Z,-0.70
2023-01-19T00:10:47.242Z,-0.70
2023-01-19T00:13:15.919Z,-0.70
2023-01-19T00:15:45.570Z,-0.70
2023-01-19T00:18:16.710Z,-0.70
2023-01-19T00:20:46.582Z,-0.70
2023-01-19T00:23:15.103Z,-0.70
2023-01-19T00:25:43.690Z,-0.80
2023-01-19T00:28:12.082Z,-0.80
2023-01-19T00:30:40.579Z,-0.80
2023-01-19T00:33:11.674Z,-0.80
2023-01-19T00:35:39.823Z,-0.80
2023-01-19T00:38:07.931Z,-0.80
2023-01-19T00:40:36.275Z,-0.90
2023-01-19T00:43:05.304Z,-0.90
2023-01-19T00:45:34.568Z,-1.00
2023-01-19T00:48:02.707Z,-1.00
2023-01-19T00:50:32.907Z,-1.00
2023-01-19T00:53:02.458Z,-1.10
2023-01-19T00:55:31.014Z,-1.10
2023-01-19T00:57:59.577Z,-1.10
2023-01-19T01:00:27.945Z,-1.00
2023-01-19T01:02:56.225Z,-1.00
2023-01-19T01:05:24.526Z,-1.00
2023-01-19T01:07:54.204Z,-1.00
2023-01-19T01:10:23.665Z,-1.00
2023-01-19T01:12:57.307Z,-1.00
2023-01-19T01:15:28.357Z,-1.10
2023-01-19T01:17:56.926Z,-1.00
2023-01-19T01:20:27.099Z,-1.00
2023-01-19T01:22:57.006Z,-0.90
2023-01-19T01:25:26.163Z,-0.90
2023-01-19T01:27:55.769Z,-0.90
2023-01-19T01:30:24.455Z,-0.80
2023-01-19T01:32:52.779Z,-0.80
2023-01-19T01:35:20.925Z,-0.80
2023-01-19T01:37:49.083Z,-0.80
2023-01-19T01:40:19.985Z,-0.80
2023-01-19T01:42:48.284Z,-0.80
2023-01-19T01:45:26.833Z,-0.70
2023-01-19T01:47:56.421Z,-0.80
2023-01-19T01:50:28.069Z,-0.80
2023-01-19T01:53:07.060Z,-0.80
2023-01-19T01:55:39.086Z,-0.80
2023-01-19T01:58:07.894Z,-0.80
2023-01-19T02:00:49.976Z,-0.80
2023-01-19T02:03:18.397Z,-0.80
2023-01-19T02:05:47.040Z,-0.80
2023-01-19T02:08:35.391Z,-0.80
2023-01-19T02:11:23.261Z,-0.80
2023-01-19T02:13:51.651Z,-0.80
2023-01-19T02:16:20.059Z,-0.90
2023-01-19T02:18:48.335Z,-0.90
2023-01-19T02:21:20.730Z,-0.80
2023-01-19T02:23:51.473Z,-0.90
2023-01-19T02:26:20.835Z,-0.90
2023-01-19T02:28:51.001Z,-0.90
2023-01-19T02:31:19.566Z,-0.90
2023-01-19T02:33:47.970Z,-0.90
2023-01-19T02:36:16.990Z,-0.90
2023-01-19T02:38:46.337Z,-0.90
2023-01-19T02:41:17.809Z,-0.90
2023-01-19T02:43:46.651Z,-0.90
2023-01-19T02:46:15.701Z,-0.90
2023-01-19T02:48:43.920Z,-0.90
2023-01-19T02:51:14.878Z,-0.80
2023-01-19T02:53:51.013Z,-0.80
2023-01-19T02:56:29.025Z,-0.80
2023-01-19T02:59:01.447Z,-0.80
2023-01-19T03:01:41.455Z,-0.90
2023-01-19T03:04:15.760Z,-0.90
2023-01-19T03:06:47.222Z,-0.80
2023-01-19T03:09:21.662Z,-0.90
2023-01-19T03:11:55.894Z,-0.80
2023-01-19T03:14:26.419Z,-0.80
2023-01-19T03:16:57.529Z,-0.80
2023-01-19T03:19:28.434Z,-0.90
2023-01-19T03:21:59.033Z,-0.90
2023-01-19T03:24:29.967Z,-0.90
2023-01-19T03:27:02.913Z,-0.90
2023-01-19T03:29:32.685Z,-0.90
2023-01-19T03:32:03.025Z,-0.90
2023-01-19T03:34:31.964Z,-0.90
2023-01-19T03:37:01.819Z,-1.00
2023-01-19T03:39:30.297Z,-1.00
2023-01-19T03:42:02.374Z,-1.00
2023-01-19T03:44:31.607Z,-1.00
2023-01-19T03:47:00.530Z,-1.00
2023-01-19T03:49:31.816Z,-1.00
2023-01-19T03:52:00.387Z,-1.00
2023-01-19T03:54:28.604Z,-0.90
2023-01-19T03:56:56.756Z,-0.90
2023-01-19T03:59:26.305Z,-0.90
2023-01-19T04:01:55.046Z,-0.90
2023-01-19T04:04:23.532Z,-1.00
2023-01-19T04:06:51.781Z,-0.90
2023-01-19T04:09:20.259Z,-0.90
2023-01-19T04:11:48.419Z,-1.00
2023-01-19T04:14:19.167Z,-1.00
2023-01-19T04:16:48.872Z,-0.90
2023-01-19T04:19:17.002Z,-0.90
2023-01-19T04:21:45.205Z,-0.90
2023-01-19T04:24:13.538Z,-0.90
2023-01-19T04:26:41.638Z,-0.90
2023-01-19T04:29:10.054Z,-1.00
2023-01-19T04:31:38.430Z,-1.00
2023-01-19T04:34:08.224Z,-1.00
2023-01-19T04:36:36.425Z,-1.00
2023-01-19T04:39:05.386Z,-1.00
2023-01-19T04:41:33.567Z,-1.00
2023-01-19T04:44:01.765Z,-1.00
2023-01-19T04:46:30.101Z,-1.00
2023-01-19T04:48:58.470Z,-1.00
2023-01-19T04:51:28.910Z,-1.00
2023-01-19T04:53:57.967Z,-1.10
2023-01-19T04:56:26.195Z,-1.10
2023-01-19T04:58:54.393Z,-1.20
2023-01-19T05:01:23.237Z,-1.30
2023-01-19T05:03:51.479Z,-1.30
2023-01-19T05:06:19.865Z,-1.30
2023-01-19T05:08:49.612Z,-1.30
2023-01-19T05:11:17.787Z,-1.20
2023-01-19T05:13:45.950Z,-1.30
2023-01-19T05:16:14.325Z,-1.30
2023-01-19T05:18:43.102Z,-1.40
2023-01-19T05:21:11.435Z,-1.40
2023-01-19T05:23:39.800Z,-1.30
2023-01-19T05:26:10.294Z,-1.30
2023-01-19T05:28:38.946Z,-1.30
2023-01-19T05:31:07.385Z,-1.30
2023-01-19T05:33:35.548Z,-1.40
2023-01-19T05:36:04.547Z,-1.30
2023-01-19T05:38:36.163Z,-1.30
2023-01-19T05:41:04.614Z,-1.30
2023-01-19T05:43:34.232Z,-1.40
2023-01-19T05:46:02.372Z,-1.40
2023-01-19T05:48:30.515Z,-1.40
2023-01-19T05:50:59.434Z,-1.40
2023-01-19T05:53:27.826Z,-1.40
2023-01-19T05:56:00.152Z,-1.40
2023-01-19T05:58:28.851Z,-1.40
2023-01-19T06:00:58.640Z,-1.50
2023-01-19T06:03:27.022Z,-1.50
2023-01-19T06:05:58.281Z,-1.50
2023-01-19T06:08:26.437Z,-1.50
2023-01-19T06:10:57.000Z,-1.40
2023-01-19T06:13:25.305Z,-1.40
2023-01-19T06:15:59.215Z,-1.40
2023-01-19T06:18:27.612Z,-1.40
2023-01-19T06:20:58.871Z,-1.30
2023-01-19T06:23:27.174Z,-1.30
2023-01-19T06:25:55.335Z,-1.30
2023-01-19T06:28:23.771Z,-1.30
2023-01-19T06:30:52.360Z,-1.30
2023-01-19T06:33:22.076Z,-1.30
2023-01-19T06:35:50.835Z,-1.30
2023-01-19T06:38:19.544Z,-1.30
2023-01-19T06:40:48.183Z,-1.30
2023-01-19T06:43:16.557Z,-1.30
2023-01-19T06:45:46.011Z,-1.30
2023-01-19T06:48:14.608Z,-1.40
2023-01-19T06:50:46.037Z,-1.40
2023-01-19T06:53:14.615Z,-1.30
2023-01-19T06:55:42.949Z,-1.20
2023-01-19T06:58:11.134Z,-1.30
2023-01-19T07:00:39.412Z,-1.30
2023-01-19T07:03:07.856Z,-1.30
2023-01-19T07:05:36.500Z,-1.30
2023-01-19T07:08:06.517Z,-1.30
2023-01-19T07:11:26.541Z,-1.30
2023-01-19T07:13:22.776Z,-1.30
2023-01-19T07:15:50.973Z,-1.30
2023-01-19T07:18:19.139Z,-1.30
2023-01-19T07:20:49.419Z,-1.30
2023-01-19T07:23:18.977Z,-1.30
2023-01-19T07:25:47.398Z,-1.30
2023-01-19T07:28:18.691Z,-1.30
2023-01-19T07:30:47.327Z,-1.30
2023-01-19T07:33:15.659Z,-1.20
2023-01-19T07:35:47.221Z,-1.30
2023-01-19T07:38:15.662Z,-1.20
2023-01-19T07:40:47.085Z,-1.20
2023-01-19T07:43:15.622Z,-1.30
2023-01-19T07:45:45.083Z,-1.30
2023-01-19T07:48:13.334Z,-1.20
2023-01-19T07:50:41.723Z,-1.20
2023-01-19T07:53:14.364Z,-1.10
2023-01-19T07:55:42.582Z,-1.10
2023-01-19T07:58:12.374Z,-1.00
2023-01-19T08:00:40.556Z,-1.00
2023-01-19T08:03:09.324Z,-1.10
2023-01-19T08:05:37.506Z,-1.10
2023-01-19T08:08:06.147Z,-1.10
2023-01-19T08:10:34.836Z,-1.00
2023-01-19T08:13:03.309Z,-1.00
2023-01-19T08:15:33.049Z,-1.00
2023-01-19T08:18:02.282Z,-1.00
2023-01-19T08:20:30.954Z,-1.00
2023-01-19T08:23:02.348Z,-1.00
2023-01-19T08:25:33.766Z,-1.00
2023-01-19T08:28:02.273Z,-1.00
2023-01-19T08:30:30.579Z,-1.00
2023-01-19T08:33:04.815Z,-1.00
2023-01-19T08:35:33.490Z,-1.00
2023-01-19T08:38:02.363Z,-1.00
2023-01-19T08:40:31.068Z,-1.00
2023-01-19T08:43:03.861Z,-1.00
2023-01-19T08:45:32.428Z,-0.90
2023-01-19T08:48:02.042Z,-1.00
2023-01-19T08:50:31.082Z,-0.90
2023-01-19T08:53:00.050Z,-0.90
2023-01-19T08:55:28.718Z,-0.80
2023-01-19T08:58:00.183Z,-0.90
2023-01-19T09:00:31.647Z,-0.90
2023-01-19T09:03:02.208Z,-0.90
2023-01-19T09:05:31.952Z,-0.80
2023-01-19T09:08:00.408Z,-0.90
2023-01-19T09:10:31.783Z,-0.80
2023-01-19T09:12:59.947Z,-0.80
2023-01-19T09:15:28.247Z,-0.80
2023-01-19T09:17:56.588Z,-0.80
2023-01-19T09:20:26.268Z,-0.70
2023-01-19T09:22:56.652Z,-0.80
2023-01-19T09:25:24.751Z,-0.80
2023-01-19T09:27:53.257Z,-0.70
2023-01-19T09:30:21.460Z,-0.80
2023-01-19T09:32:49.745Z,-0.70
2023-01-19T09:35:17.941Z,-0.70
2023-01-19T09:37:48.698Z,-0.70
2023-01-19T09:40:17.636Z,-0.60
2023-01-19T09:42:48.622Z,-0.70
2023-01-19T09:45:20.755Z,-0.60
2023-01-19T09:47:49.823Z,-0.70
2023-01-19T09:50:19.194Z,-0.60
2023-01-19T09:52:53.387Z,-0.60
2023-01-19T09:55:23.849Z,-0.60
2023-01-19T09:57:52.053Z,-0.60
2023-01-19T10:00:20.817Z,-0.60
2023-01-19T10:02:51.914Z,-0.50
2023-01-19T10:05:26.837Z,-0.60
2023-01-19T10:08:08.868Z,-0.50
2023-01-19T10:10:42.475Z,-0.60
2023-01-19T10:13:23.774Z,-0.50
2023-01-19T10:15:57.627Z,-0.50
2023-01-19T10:18:31.162Z,-0.50
2023-01-19T10:21:04.695Z,-0.40
2023-01-19T10:23:40.766Z,-0.40
2023-01-19T10:26:11.238Z,-0.40
2023-01-19T10:28:40.038Z,-0.40
2023-01-19T10:31:10.339Z,-0.40
2023-01-19T10:33:41.671Z,-0.40
2023-01-19T10:36:17.726Z,-0.40
2023-01-19T10:38:48.094Z,-0.40
2023-01-19T10:41:19.316Z,-0.40
2023-01-19T10:43:48.275Z,-0.40
2023-01-19T10:46:22.542Z,-0.40
2023-01-19T10:48:52.052Z,-0.40
2023-01-19T10:51:20.640Z,-0.40
2023-01-19T10:53:59.152Z,-0.40
2023-01-19T10:56:29.320Z,-0.40
2023-01-19T10:58:57.578Z,-0.40
2023-01-19T11:01:30.009Z,-0.30
2023-01-19T11:04:05.792Z,-0.30
2023-01-19T11:06:35.848Z,-0.30
2023-01-19T11:09:17.510Z,-0.30
2023-01-19T11:11:49.969Z,-0.30
2023-01-19T11:14:20.286Z,-0.30
2023-01-19T11:16:53.348Z,-0.30
2023-01-19T11:19:23.348Z,-0.20
2023-01-19T11:21:51.591Z,-0.30
2023-01-19T11:24:21.853Z,-0.20
2023-01-19T11:26:51.700Z,-0.20
2023-01-19T11:29:24.624Z,-0.20
2023-01-19T11:31:55.011Z,-0.30
2023-01-19T11:34:28.296Z,-0.20
2023-01-19T11:36:57.827Z,-0.20
2023-01-19T11:39:28.305Z,-0.20
2023-01-19T11:41:58.068Z,-0.20
2023-01-19T11:44:27.286Z,-0.20
2023-01-19T11:46:57.143Z,-0.20
2023-01-19T11:49:34.675Z,-0.20
2023-01-19T11:52:04.531Z,-0.20
2023-01-19T11:54:36.128Z,-0.20
2023-01-19T11:57:11.972Z,-0.20
2023-01-19T11:59:41.241Z,-0.20
2023-01-19T12:02:15.812Z,-0.20
2023-01-19T12:04:44.529Z,-0.20
2023-01-19T12:07:13.375Z,-0.20
2023-01-19T12:09:45.430Z,-0.20
2023-01-19T12:12:16.638Z,-0.20
2023-01-19T12:14:54.436Z,-0.10
2023-01-19T12:17:26.094Z,-0.10
2023-01-19T12:19:57.694Z,-0.10
2023-01-19T12:22:28.743Z,-0.20
2023-01-19T12:25:00.926Z,-0.20
2023-01-19T12:27:38.189Z,-0.20
2023-01-19T12:30:07.269Z,-0.20
2023-01-19T12:32:36.969Z,-0.10
2023-01-19T12:35:05.363Z,-0.20
2023-01-19T12:37:37.498Z,-0.20
2023-01-19T12:40:20.068Z,-0.20
2023-01-19T12:42:50.110Z,-0.20
2023-01-19T12:45:19.115Z,-0.30
2023-01-19T12:47:52.925Z,-0.20
2023-01-19T12:50:23.500Z,-0.20
2023-01-19T12:52:57.166Z,-0.20
2023-01-19T12:55:31.270Z,-0.20
2023-01-19T12:58:01.350Z,-0.20
2023-01-19T13:00:31.212Z,-0.20
2023-01-19T13:03:00.020Z,-0.20
2023-01-19T13:05:58.108Z,-0.20
2023-01-19T13:08:28.452Z,-0.20
2023-01-19T13:11:26.009Z,-0.20
2023-01-19T13:14:28.470Z,-0.20
2023-01-19T13:17:11.391Z,-0.20
2023-01-19T13:19:54.458Z,-0.20
2023-01-19T13:22:41.241Z,-0.20
2023-01-19T13:25:12.659Z,-0.20
2023-01-19T13:27:42.163Z,-0.20
2023-01-19T13:30:16.994Z,-0.10
2023-01-19T13:32:45.329Z,-0.10
2023-01-19T13:35:16.718Z,-0.20
2023-01-19T13:37:45.624Z,-0.10
2023-01-19T13:40:21.769Z,-0.10
2023-01-19T13:42:51.146Z,-0.10
2023-01-19T13:45:26.946Z,-0.10
2023-01-19T13:47:56.103Z,-0.10
2023-01-19T13:50:25.517Z,0.00
2023-01-19T13:52:55.659Z,0.00
2023-01-19T13:55:25.815Z,0.00
2023-01-19T13:57:54.515Z,0.00
2023-01-19T14:00:24.082Z,0.00
2023-01-19T14:02:54.085Z,0.00
2023-01-19T14:05:23.751Z,0.00
2023-01-19T14:08:04.760Z,-0.10
2023-01-19T14:10:34.931Z,-0.10
2023-01-19T14:13:03.774Z,-0.10
2023-01-19T14:15:33.162Z,-0.10
2023-01-19T14:18:11.609Z,0.00
2023-01-19T14:20:40.122Z,-0.10
2023-01-19T14:23:08.890Z,-0.10
2023-01-19T14:25:39.773Z,-0.10
2023-01-19T14:28:26.278Z,-0.10
2023-01-19T14:30:55.068Z,-0.10
2023-01-19T14:33:42.361Z,-0.10
2023-01-19T14:36:11.729Z,-0.10
2023-01-19T14:38:44.762Z,-0.10
2023-01-19T14:41:23.272Z,-0.10
2023-01-19T14:43:51.768Z,-0.10
2023-01-19T14:46:20.803Z,-0.10
2023-01-19T14:48:49.695Z,-0.10
2023-01-19T14:51:19.902Z,-0.10
2023-01-19T14:53:49.025Z,-0.10
2023-01-19T14:56:27.161Z,-0.20
2023-01-19T14:58:56.197Z,-0.20
2023-01-19T15:01:29.067Z,-0.20
2023-01-19T15:03:58.113Z,-0.20
2023-01-19T15:06:27.098Z,-0.20
2023-01-19T15:08:55.877Z,-0.20
2023-01-19T15:11:28.091Z,-0.30
2023-01-19T15:13:57.782Z,-0.30
2023-01-19T15:16:26.498Z,-0.30
2023-01-19T15:18:54.971Z,-0.30
2023-01-19T15:21:26.708Z,-0.30
2023-01-19T15:23:55.261Z,-0.40
2023-01-19T15:26:24.757Z,-0.40
2023-01-19T15:28:53.469Z,-0.40
2023-01-19T15:31:24.275Z,-0.40
2023-01-19T15:33:52.397Z,-0.40
2023-01-19T15:36:21.584Z,-0.40
2023-01-19T15:38:51.111Z,-0.30
2023-01-19T15:41:23.427Z,-0.30
2023-01-19T15:43:51.790Z,-0.30
2023-01-19T15:46:20.779Z,-0.40
2023-01-19T15:48:50.644Z,-0.30
2023-01-19T15:51:20.010Z,-0.30
2023-01-19T15:53:48.642Z,-0.40
2023-01-19T15:56:17.685Z,-0.40
2023-01-19T15:58:46.010Z,-0.40
2023-01-19T16:01:14.962Z,-0.40
2023-01-19T16:03:43.451Z,-0.40
2023-01-19T16:06:17.970Z,-0.40
2023-01-19T16:08:46.667Z,-0.40
2023-01-19T16:11:15.683Z,-0.40
2023-01-19T16:13:45.573Z,-0.40
2023-01-19T16:16:15.579Z,-0.40
2023-01-19T16:18:44.013Z,-0.50
2023-01-19T16:21:12.315Z,-0.40
2023-01-19T16:23:41.935Z,-0.40
2023-01-19T16:26:23.632Z,-0.50
2023-01-19T16:28:51.949Z,-0.50
2023-01-19T16:31:20.145Z,-0.50
2023-01-19T16:33:48.333Z,-0.50
2023-01-19T16:36:20.954Z,-0.50
2023-01-19T16:38:53.012Z,-0.50
2023-01-19T16:41:21.523Z,-0.50
2023-01-19T16:43:54.030Z,-0.50
2023-01-19T16:46:25.463Z,-0.50
2023-01-19T16:48:54.064Z,-0.50
2023-01-19T16:51:22.310Z,-0.50
2023-01-19T16:53:52.170Z,-0.50
2023-01-19T16:56:20.343Z,-0.50
2023-01-19T16:58:48.586Z,-0.60
2023-01-19T17:01:20.693Z,-0.50
2023-01-19T17:03:49.215Z,-0.50
2023-01-19T17:06:18.819Z,-0.50
2023-01-19T17:08:47.386Z,-0.50
2023-01-19T17:11:20.636Z,-0.50
2023-01-19T17:13:54.177Z,-0.50
2023-01-19T17:16:24.833Z,-0.60
2023-01-19T17:18:53.185Z,-0.50
2023-01-19T17:21:23.174Z,-0.50
2023-01-19T17:23:53.643Z,-0.50
2023-01-19T17:26:25.357Z,-0.50
2023-01-19T17:28:53.589Z,-0.60
2023-01-19T17:31:23.154Z,-0.50
2023-01-19T17:33:51.718Z,-0.60
2023-01-19T17:36:22.557Z,-0.50
2023-01-19T17:38:50.904Z,-0.50
2023-01-19T17:41:19.902Z,-0.50
2023-01-19T17:43:50.457Z,-0.50
2023-01-19T17:46:19.098Z,-0.50
2023-01-19T17:48:54.627Z,-0.50
2023-01-19T17:51:24.097Z,-0.50
2023-01-19T17:53:52.906Z,-0.50
2023-01-19T17:56:22.199Z,-0.40
2023-01-19T17:58:51.866Z,-0.40
2023-01-19T18:01:23.793Z,-0.40
2023-01-19T18:03:52.970Z,-0.40
2023-01-19T18:06:21.647Z,-0.40
2023-01-19T18:08:49.915Z,-0.40
2023-01-19T18:11:19.967Z,-0.40
2023-01-19T18:13:48.911Z,-0.40
2023-01-19T18:16:19.561Z,-0.30
2023-01-19T18:18:50.448Z,-0.40
2023-01-19T18:21:20.333Z,-0.40
2023-01-19T18:23:48.710Z,-0.40
2023-01-19T18:26:17.831Z,-0.40
2023-01-19T18:28:46.023Z,-0.40
2023-01-19T18:31:19.393Z,-0.40
2023-01-19T18:33:48.197Z,-0.50
2023-01-19T18:36:16.789Z,-0.50
2023-01-19T18:38:45.195Z,-0.50
2023-01-19T18:41:14.413Z,-0.50
2023-01-19T18:43:43.790Z,-0.50
2023-01-19T18:46:12.163Z,-0.50
2023-01-19T18:48:41.860Z,-0.50
2023-01-19T18:51:10.645Z,-0.60
2023-01-19T18:53:39.417Z,-0.60
2023-01-19T18:56:07.865Z,-0.60
2023-01-19T18:58:38.370Z,-0.70
2023-01-19T19:01:17.534Z,-0.70
2023-01-19T19:03:47.168Z,-0.70
2023-01-19T19:06:16.879Z,-0.70
2023-01-19T19:08:45.455Z,-0.70
2023-01-19T19:11:14.289Z,-0.80
2023-01-19T19:13:42.549Z,-0.80
2023-01-19T19:16:11.399Z,-0.80
2023-01-19T19:18:40.053Z,-0.90
2023-01-19T19:21:13.319Z,-0.90
2023-01-19T19:23:41.483Z,-0.90
2023-01-19T19:26:10.824Z,-1.00
2023-01-19T19:28:39.637Z,-1.00
2023-01-19T19:31:09.726Z,-1.10
2023-01-19T19:33:39.060Z,-1.10
2023-01-19T19:36:08.050Z,-1.20
2023-01-19T19:38:37.971Z,-1.20
2023-01-19T19:41:06.519Z,-1.30
2023-01-19T19:43:35.275Z,-1.30
2023-01-19T19:46:04.301Z,-1.40
2023-01-19T19:48:32.534Z,-1.50
2023-01-19T19:51:17.024Z,-1.60
2023-01-19T19:53:50.932Z,-1.70
2023-01-19T19:56:21.432Z,-1.80
2023-01-19T19:58:52.982Z,-1.80
2023-01-19T20:01:22.318Z,-1.90
2023-01-19T20:03:52.108Z,-1.90
2023-01-19T20:06:21.629Z,-1.90
2023-01-19T20:08:52.101Z,-2.00
2023-01-19T20:11:22.444Z,-2.00
2023-01-19T20:13:50.961Z,-2.20
2023-01-19T20:16:20.124Z,-2.20
2023-01-19T20:18:51.315Z,-2.20
2023-01-19T20:21:20.747Z,-2.20
2023-01-19T20:23:49.690Z,-2.30
2023-01-19T20:26:20.370Z,-2.50
2023-01-19T20:28:48.849Z,-2.50
2023-01-19T20:31:19.437Z,-2.60
2023-01-19T20:33:48.484Z,-2.70
2023-01-19T20:36:19.066Z,-2.60
2023-01-19T20:38:47.497Z,-2.50
2023-01-19T20:41:15.663Z,-2.40
2023-01-19T20:43:45.530Z,-2.40
2023-01-19T20:46:13.850Z,-2.40
2023-01-19T20:48:42.168Z,-2.50
2023-01-19T20:51:11.772Z,-2.50
2023-01-19T20:53:41.099Z,-2.50
2023-01-19T20:56:11.311Z,-2.50
2023-01-19T20:58:39.599Z,-2.60
2023-01-19T21:01:13.258Z,-2.60
2023-01-19T21:03:41.769Z,-2.80
2023-01-19T21:06:11.031Z,-2.90
2023-01-19T21:08:39.194Z,-2.80
2023-01-19T21:11:07.811Z,-2.90
2023-01-19T21:13:39.724Z,-2.90
2023-01-19T21:16:08.592Z,-3.00
2023-01-19T21:18:38.401Z,-2.90
2023-01-19T21:21:09.112Z,-2.80
2023-01-19T21:23:38.880Z,-2.90
2023-01-19T21:26:07.113Z,-2.90
2023-01-19T21:28:35.455Z,-2.90
2023-01-19T21:31:07.586Z,-2.90
2023-01-19T21:33:36.173Z,-2.90
2023-01-19T21:36:06.206Z,-3.00
2023-01-19T21:38:36.357Z,-3.00
2023-01-19T21:41:06.897Z,-3.00
2023-01-19T21:43:36.329Z,-3.00
2023-01-19T21:46:11.052Z,-3.10
2023-01-19T21:48:39.349Z,-3.10
2023-01-19T21:51:09.064Z,-3.10
2023-01-19T21:53:37.403Z,-3.10
2023-01-19T21:56:07.257Z,-3.10
2023-01-19T21:58:35.447Z,-3.00
2023-01-19T22:01:04.692Z,-3.10
2023-01-19T22:03:33.229Z,-3.10
2023-01-19T22:06:04.625Z,-3.20
2023-01-19T22:08:34.222Z,-3.10
2023-01-19T22:11:05.212Z,-3.10
2023-01-19T22:13:33.711Z,-3.10
2023-01-19T22:16:02.170Z,-3.30
2023-01-19T22:18:30.369Z,-3.40
2023-01-19T22:21:07.650Z,-3.30
2023-01-19T22:23:37.444Z,-3.20
2023-01-19T22:26:06.332Z,-3.20
2023-01-19T22:28:35.112Z,-3.20
2023-01-19T22:31:04.220Z,-3.30
2023-01-19T22:33:32.509Z,-3.40
2023-01-19T22:36:10.745Z,-3.40
2023-01-19T22:38:42.934Z,-3.40
2023-01-19T22:41:18.338Z,-3.40
2023-01-19T22:43:46.522Z,-3.30
2023-01-19T22:46:14.885Z,-3.20
2023-01-19T22:48:43.101Z,-3.20
2023-01-19T22:51:11.186Z,-3.20
2023-01-19T22:53:45.327Z,-3.40
2023-01-19T22:56:14.577Z,-3.40
2023-01-19T22:58:44.276Z,-3.50
2023-01-19T23:01:13.202Z,-3.50
2023-01-19T23:03:41.623Z,-3.50
2023-01-19T23:06:10.610Z,-3.60
2023-01-19T23:08:40.566Z,-3.70
2023-01-19T23:11:10.102Z,-3.70
2023-01-19T23:13:38.672Z,-3.70
2023-01-19T23:16:07.552Z,-3.60
2023-01-19T23:18:35.899Z,-3.70
2023-01-19T23:21:04.530Z,-3.70
2023-01-19T23:23:32.974Z,-3.70
2023-01-19T23:26:03.728Z,-3.80
2023-01-19T23:28:31.975Z,-3.80
2023-01-19T23:31:00.433Z,-3.80
2023-01-19T23:33:28.785Z,-3.90
2023-01-19T23:35:56.921Z,-3.90
2023-01-19T23:38:26.644Z,-3.80
2023-01-19T23:40:57.955Z,-4.00
2023-01-19T23:43:27.514Z,-4.00
2023-01-19T23:45:55.826Z,-4.00
2023-01-19T23:48:24.189Z,-3.90
2023-01-19T23:50:52.314Z,-3.90
2023-01-19T23:53:20.486Z,-3.90
2023-01-19T23:55:48.868Z,-3.90
2023-01-19T23:58:17.030Z,-3.90
